sensor_id;sensor_type;location;lat;lon;timestamp;temperature;humidity
32217;DHT22;67098;51.140;4.088;2024-02-28T00:00:05;8.60;94.90
32217;DHT22;67098;51.140;4.088;2024-02-28T00:02:30;8.50;95.10
32217;DHT22;67098;51.140;4.088;2024-02-28T00:04:56;8.50;95.00
32217;DHT22;67098;51.140;4.088;2024-02-28T00:07:24;8.50;95.00
32217;DHT22;67098;51.140;4.088;2024-02-28T00:09:50;8.50;95.10
32217;DHT22;67098;51.140;4.088;2024-02-28T00:12:16;8.50;95.10
32217;DHT22;67098;51.140;4.088;2024-02-28T00:14:42;8.40;95.10
32217;DHT22;67098;51.140;4.088;2024-02-28T00:17:08;8.40;95.10
32217;DHT22;67098;51.140;4.088;2024-02-28T00:19:33;8.30;95.10
32217;DHT22;67098;51.140;4.088;2024-02-28T00:21:59;8.30;95.00
32217;DHT22;67098;51.140;4.088;2024-02-28T00:24:26;8.20;94.90
32217;DHT22;67098;51.140;4.088;2024-02-28T00:26:52;8.10;95.00
32217;DHT22;67098;51.140;4.088;2024-02-28T00:29:18;8.00;94.90
32217;DHT22;67098;51.140;4.088;2024-02-28T00:31:43;8.00;94.90
32217;DHT22;67098;51.140;4.088;2024-02-28T00:34:09;8.00;94.90
32217;DHT22;67098;51.140;4.088;2024-02-28T00:36:35;8.10;94.90
32217;DHT22;67098;51.140;4.088;2024-02-28T00:39:01;8.00;94.90
32217;DHT22;67098;51.140;4.088;2024-02-28T00:41:27;7.90;94.90
32217;DHT22;67098;51.140;4.088;2024-02-28T00:43:53;7.90;95.00
32217;DHT22;67098;51.140;4.088;2024-02-28T00:46:18;7.90;95.10
32217;DHT22;67098;51.140;4.088;2024-02-28T00:48:44;7.90;94.90
32217;DHT22;67098;51.140;4.088;2024-02-28T00:51:10;7.80;95.00
32217;DHT22;67098;51.140;4.088;2024-02-28T00:53:36;7.80;94.80
32217;DHT22;67098;51.140;4.088;2024-02-28T00:56:02;7.70;94.70
32217;DHT22;67098;51.140;4.088;2024-02-28T00:58:28;7.70;94.80
32217;DHT22;67098;51.140;4.088;2024-02-28T01:00:55;7.70;94.80
32217;DHT22;67098;51.140;4.088;2024-02-28T01:03:22;7.70;94.90
32217;DHT22;67098;51.140;4.088;2024-02-28T01:05:49;7.70;95.00
32217;DHT22;67098;51.140;4.088;2024-02-28T01:08:16;7.70;95.10
32217;DHT22;67098;51.140;4.088;2024-02-28T01:10:43;7.60;95.20
32217;DHT22;67098;51.140;4.088;2024-02-28T01:13:09;7.60;95.30
32217;DHT22;67098;51.140;4.088;2024-02-28T01:15:35;7.60;95.30
32217;DHT22;67098;51.140;4.088;2024-02-28T01:18:00;7.50;95.30
32217;DHT22;67098;51.140;4.088;2024-02-28T01:20:26;7.50;95.50
32217;DHT22;67098;51.140;4.088;2024-02-28T01:22:52;7.50;95.30
32217;DHT22;67098;51.140;4.088;2024-02-28T01:25:18;7.50;95.40
32217;DHT22;67098;51.140;4.088;2024-02-28T01:27:44;7.40;95.30
32217;DHT22;67098;51.140;4.088;2024-02-28T01:30:10;7.40;95.30
32217;DHT22;67098;51.140;4.088;2024-02-28T01:32:36;7.40;95.30
32217;DHT22;67098;51.140;4.088;2024-02-28T01:35:05;7.40;95.20
32217;DHT22;67098;51.140;4.088;2024-02-28T01:37:31;7.40;95.20
32217;DHT22;67098;51.140;4.088;2024-02-28T01:39:57;7.30;95.30
32217;DHT22;67098;51.140;4.088;2024-02-28T01:42:23;7.30;95.40
32217;DHT22;67098;51.140;4.088;2024-02-28T01:44:49;7.30;95.30
32217;DHT22;67098;51.140;4.088;2024-02-28T01:47:14;7.30;95.30
32217;DHT22;67098;51.140;4.088;2024-02-28T01:49:42;7.20;95.40
32217;DHT22;67098;51.140;4.088;2024-02-28T01:52:09;7.20;95.50
32217;DHT22;67098;51.140;4.088;2024-02-28T01:54:35;7.20;95.50
32217;DHT22;67098;51.140;4.088;2024-02-28T01:57:02;7.10;95.50
32217;DHT22;67098;51.140;4.088;2024-02-28T01:59:28;7.10;95.60
32217;DHT22;67098;51.140;4.088;2024-02-28T02:01:55;7.10;95.60
32217;DHT22;67098;51.140;4.088;2024-02-28T02:04:21;7.10;95.60
32217;DHT22;67098;51.140;4.088;2024-02-28T02:06:48;7.10;95.60
32217;DHT22;67098;51.140;4.088;2024-02-28T02:09:16;7.10;95.70
32217;DHT22;67098;51.140;4.088;2024-02-28T02:11:42;7.10;95.70
32217;DHT22;67098;51.140;4.088;2024-02-28T02:14:08;7.10;95.80
32217;DHT22;67098;51.140;4.088;2024-02-28T02:16:34;7.10;95.80
32217;DHT22;67098;51.140;4.088;2024-02-28T02:18:59;7.00;95.90
32217;DHT22;67098;51.140;4.088;2024-02-28T02:21:30;7.00;95.90
32217;DHT22;67098;51.140;4.088;2024-02-28T02:23:56;7.10;95.90
32217;DHT22;67098;51.140;4.088;2024-02-28T02:26:22;7.00;96.00
32217;DHT22;67098;51.140;4.088;2024-02-28T02:28:48;7.00;95.90
32217;DHT22;67098;51.140;4.088;2024-02-28T02:31:14;6.90;96.00
32217;DHT22;67098;51.140;4.088;2024-02-28T02:33:40;7.00;96.00
32217;DHT22;67098;51.140;4.088;2024-02-28T02:36:06;6.90;96.10
32217;DHT22;67098;51.140;4.088;2024-02-28T02:38:31;6.90;96.10
32217;DHT22;67098;51.140;4.088;2024-02-28T02:40:57;6.90;96.10
32217;DHT22;67098;51.140;4.088;2024-02-28T02:43:23;6.90;96.20
32217;DHT22;67098;51.140;4.088;2024-02-28T02:45:49;6.90;96.20
32217;DHT22;67098;51.140;4.088;2024-02-28T02:48:14;6.90;96.20
32217;DHT22;67098;51.140;4.088;2024-02-28T02:50:40;6.90;96.40
32217;DHT22;67098;51.140;4.088;2024-02-28T02:53:09;6.80;96.40
32217;DHT22;67098;51.140;4.088;2024-02-28T02:55:35;6.80;96.40
32217;DHT22;67098;51.140;4.088;2024-02-28T02:58:01;6.80;96.60
32217;DHT22;67098;51.140;4.088;2024-02-28T03:00:28;6.80;96.50
32217;DHT22;67098;51.140;4.088;2024-02-28T03:02:54;6.80;96.50
32217;DHT22;67098;51.140;4.088;2024-02-28T03:05:20;6.80;96.60
32217;DHT22;67098;51.140;4.088;2024-02-28T03:07:45;6.80;96.60
32217;DHT22;67098;51.140;4.088;2024-02-28T03:10:11;6.80;96.60
32217;DHT22;67098;51.140;4.088;2024-02-28T03:12:37;6.80;96.60
32217;DHT22;67098;51.140;4.088;2024-02-28T03:15:03;6.80;96.70
32217;DHT22;67098;51.140;4.088;2024-02-28T03:17:29;6.70;96.70
32217;DHT22;67098;51.140;4.088;2024-02-28T03:19:55;6.80;96.90
32217;DHT22;67098;51.140;4.088;2024-02-28T03:22:22;6.70;96.90
32217;DHT22;67098;51.140;4.088;2024-02-28T03:24:47;6.80;96.80
32217;DHT22;67098;51.140;4.088;2024-02-28T03:27:14;6.70;96.90
32217;DHT22;67098;51.140;4.088;2024-02-28T03:29:40;6.70;97.00
32217;DHT22;67098;51.140;4.088;2024-02-28T03:32:06;6.70;96.90
32217;DHT22;67098;51.140;4.088;2024-02-28T03:34:32;6.70;96.90
32217;DHT22;67098;51.140;4.088;2024-02-28T03:36:57;6.70;97.10
32217;DHT22;67098;51.140;4.088;2024-02-28T03:39:23;6.70;97.10
32217;DHT22;67098;51.140;4.088;2024-02-28T03:41:49;6.70;97.00
32217;DHT22;67098;51.140;4.088;2024-02-28T03:44:15;6.70;97.10
32217;DHT22;67098;51.140;4.088;2024-02-28T03:46:41;6.70;97.20
32217;DHT22;67098;51.140;4.088;2024-02-28T03:49:07;6.70;97.10
32217;DHT22;67098;51.140;4.088;2024-02-28T03:51:32;6.70;97.30
32217;DHT22;67098;51.140;4.088;2024-02-28T03:54:05;6.70;97.30
32217;DHT22;67098;51.140;4.088;2024-02-28T03:56:30;6.60;97.30
32217;DHT22;67098;51.140;4.088;2024-02-28T03:58:56;6.60;97.40
32217;DHT22;67098;51.140;4.088;2024-02-28T04:01:22;6.60;97.60
32217;DHT22;67098;51.140;4.088;2024-02-28T04:03:47;6.70;97.70
32217;DHT22;67098;51.140;4.088;2024-02-28T04:06:13;6.70;97.80
32217;DHT22;67098;51.140;4.088;2024-02-28T04:08:40;6.70;98.10
32217;DHT22;67098;51.140;4.088;2024-02-28T04:11:06;6.70;98.20
32217;DHT22;67098;51.140;4.088;2024-02-28T04:13:32;6.70;98.40
32217;DHT22;67098;51.140;4.088;2024-02-28T04:15:58;6.80;98.70
32217;DHT22;67098;51.140;4.088;2024-02-28T04:18:24;6.80;98.50
32217;DHT22;67098;51.140;4.088;2024-02-28T04:20:50;6.90;98.80
32217;DHT22;67098;51.140;4.088;2024-02-28T04:23:16;6.90;98.80
32217;DHT22;67098;51.140;4.088;2024-02-28T04:25:42;6.90;99.00
32217;DHT22;67098;51.140;4.088;2024-02-28T04:28:08;6.90;99.10
32217;DHT22;67098;51.140;4.088;2024-02-28T04:30:34;7.00;99.20
32217;DHT22;67098;51.140;4.088;2024-02-28T04:33:00;7.00;99.30
32217;DHT22;67098;51.140;4.088;2024-02-28T04:35:26;7.00;99.40
32217;DHT22;67098;51.140;4.088;2024-02-28T04:37:52;7.10;99.60
32217;DHT22;67098;51.140;4.088;2024-02-28T04:40:18;7.20;99.60
32217;DHT22;67098;51.140;4.088;2024-02-28T04:42:43;7.20;99.70
32217;DHT22;67098;51.140;4.088;2024-02-28T04:45:09;7.30;99.70
32217;DHT22;67098;51.140;4.088;2024-02-28T04:47:36;7.30;99.70
32217;DHT22;67098;51.140;4.088;2024-02-28T04:50:02;7.40;99.70
32217;DHT22;67098;51.140;4.088;2024-02-28T04:52:33;7.40;99.80
32217;DHT22;67098;51.140;4.088;2024-02-28T04:54:59;7.40;99.80
32217;DHT22;67098;51.140;4.088;2024-02-28T04:57:25;7.40;99.90
32217;DHT22;67098;51.140;4.088;2024-02-28T04:59:51;7.40;99.90
32217;DHT22;67098;51.140;4.088;2024-02-28T05:02:18;7.50;99.90
32217;DHT22;67098;51.140;4.088;2024-02-28T05:04:43;7.50;99.80
32217;DHT22;67098;51.140;4.088;2024-02-28T05:07:09;7.50;99.90
32217;DHT22;67098;51.140;4.088;2024-02-28T05:09:35;7.60;99.90
32217;DHT22;67098;51.140;4.088;2024-02-28T05:12:01;7.70;99.80
32217;DHT22;67098;51.140;4.088;2024-02-28T05:14:27;7.60;99.90
32217;DHT22;67098;51.140;4.088;2024-02-28T05:16:53;7.60;99.90
32217;DHT22;67098;51.140;4.088;2024-02-28T05:19:19;7.70;99.90
32217;DHT22;67098;51.140;4.088;2024-02-28T05:21:45;7.70;99.90
32217;DHT22;67098;51.140;4.088;2024-02-28T05:24:11;7.70;99.90
32217;DHT22;67098;51.140;4.088;2024-02-28T05:26:38;7.70;99.90
32217;DHT22;67098;51.140;4.088;2024-02-28T05:29:04;7.80;99.90
32217;DHT22;67098;51.140;4.088;2024-02-28T05:31:31;7.90;99.90
32217;DHT22;67098;51.140;4.088;2024-02-28T05:33:58;7.90;99.90
32217;DHT22;67098;51.140;4.088;2024-02-28T05:36:26;7.90;99.90
32217;DHT22;67098;51.140;4.088;2024-02-28T05:38:53;7.90;99.80
32217;DHT22;67098;51.140;4.088;2024-02-28T05:41:19;7.90;99.90
32217;DHT22;67098;51.140;4.088;2024-02-28T05:43:46;7.90;99.90
32217;DHT22;67098;51.140;4.088;2024-02-28T05:46:12;7.90;99.90
32217;DHT22;67098;51.140;4.088;2024-02-28T05:48:40;7.90;99.90
32217;DHT22;67098;51.140;4.088;2024-02-28T05:51:06;8.00;99.90
32217;DHT22;67098;51.140;4.088;2024-02-28T05:53:32;8.00;99.80
32217;DHT22;67098;51.140;4.088;2024-02-28T05:56:01;8.00;99.90
32217;DHT22;67098;51.140;4.088;2024-02-28T05:58:28;8.00;99.90
32217;DHT22;67098;51.140;4.088;2024-02-28T06:00:54;7.90;99.90
32217;DHT22;67098;51.140;4.088;2024-02-28T06:03:20;8.00;99.90
32217;DHT22;67098;51.140;4.088;2024-02-28T06:05:46;8.00;99.90
32217;DHT22;67098;51.140;4.088;2024-02-28T06:08:12;8.00;99.90
32217;DHT22;67098;51.140;4.088;2024-02-28T06:10:38;8.00;99.90
32217;DHT22;67098;51.140;4.088;2024-02-28T06:13:04;8.10;99.90
32217;DHT22;67098;51.140;4.088;2024-02-28T06:15:30;8.10;99.90
32217;DHT22;67098;51.140;4.088;2024-02-28T06:17:57;8.10;99.90
32217;DHT22;67098;51.140;4.088;2024-02-28T06:20:23;8.10;99.90
32217;DHT22;67098;51.140;4.088;2024-02-28T06:22:49;8.10;99.90
32217;DHT22;67098;51.140;4.088;2024-02-28T06:25:14;8.10;99.90
32217;DHT22;67098;51.140;4.088;2024-02-28T06:27:45;8.10;99.90
32217;DHT22;67098;51.140;4.088;2024-02-28T06:30:11;8.10;99.90
32217;DHT22;67098;51.140;4.088;2024-02-28T06:32:38;8.10;99.90
32217;DHT22;67098;51.140;4.088;2024-02-28T06:35:05;8.00;99.90
32217;DHT22;67098;51.140;4.088;2024-02-28T06:37:30;8.10;99.90
32217;DHT22;67098;51.140;4.088;2024-02-28T06:39:56;8.00;99.90
32217;DHT22;67098;51.140;4.088;2024-02-28T06:42:22;8.00;99.90
32217;DHT22;67098;51.140;4.088;2024-02-28T06:44:48;8.00;99.90
32217;DHT22;67098;51.140;4.088;2024-02-28T06:47:13;8.00;99.90
32217;DHT22;67098;51.140;4.088;2024-02-28T06:49:39;8.00;99.90
32217;DHT22;67098;51.140;4.088;2024-02-28T06:52:05;8.10;99.90
32217;DHT22;67098;51.140;4.088;2024-02-28T06:54:31;8.10;99.90
32217;DHT22;67098;51.140;4.088;2024-02-28T06:56:57;8.20;99.90
32217;DHT22;67098;51.140;4.088;2024-02-28T06:59:23;8.10;99.90
32217;DHT22;67098;51.140;4.088;2024-02-28T07:01:49;8.20;99.90
32217;DHT22;67098;51.140;4.088;2024-02-28T07:04:15;8.20;99.90
32217;DHT22;67098;51.140;4.088;2024-02-28T07:06:40;8.20;99.90
32217;DHT22;67098;51.140;4.088;2024-02-28T07:09:10;8.20;99.90
32217;DHT22;67098;51.140;4.088;2024-02-28T07:11:38;8.30;99.90
32217;DHT22;67098;51.140;4.088;2024-02-28T07:14:04;8.40;99.90
32217;DHT22;67098;51.140;4.088;2024-02-28T07:16:30;8.40;99.90
32217;DHT22;67098;51.140;4.088;2024-02-28T07:18:58;8.40;99.90
32217;DHT22;67098;51.140;4.088;2024-02-28T07:21:24;8.40;99.90
32217;DHT22;67098;51.140;4.088;2024-02-28T07:23:49;8.50;99.90
32217;DHT22;67098;51.140;4.088;2024-02-28T07:26:16;8.50;99.90
32217;DHT22;67098;51.140;4.088;2024-02-28T07:28:42;8.50;99.90
32217;DHT22;67098;51.140;4.088;2024-02-28T07:31:17;8.50;99.90
32217;DHT22;67098;51.140;4.088;2024-02-28T07:33:43;8.60;99.90
32217;DHT22;67098;51.140;4.088;2024-02-28T07:36:09;8.60;99.90
32217;DHT22;67098;51.140;4.088;2024-02-28T07:38:35;8.60;99.90
32217;DHT22;67098;51.140;4.088;2024-02-28T07:41:01;8.60;99.90
32217;DHT22;67098;51.140;4.088;2024-02-28T07:43:28;8.60;99.90
32217;DHT22;67098;51.140;4.088;2024-02-28T07:45:58;8.70;99.90
32217;DHT22;67098;51.140;4.088;2024-02-28T07:48:24;8.70;99.90
32217;DHT22;67098;51.140;4.088;2024-02-28T07:50:50;8.70;99.90
32217;DHT22;67098;51.140;4.088;2024-02-28T07:53:17;8.70;99.90
32217;DHT22;67098;51.140;4.088;2024-02-28T07:55:42;8.70;99.90
32217;DHT22;67098;51.140;4.088;2024-02-28T07:58:08;8.80;99.90
32217;DHT22;67098;51.140;4.088;2024-02-28T08:00:35;8.80;99.90
32217;DHT22;67098;51.140;4.088;2024-02-28T08:03:01;8.80;99.90
32217;DHT22;67098;51.140;4.088;2024-02-28T08:05:27;8.80;99.90
32217;DHT22;67098;51.140;4.088;2024-02-28T08:07:53;8.90;99.90
32217;DHT22;67098;51.140;4.088;2024-02-28T08:10:19;8.90;99.90
32217;DHT22;67098;51.140;4.088;2024-02-28T08:12:45;8.90;99.90
32217;DHT22;67098;51.140;4.088;2024-02-28T08:15:11;9.00;99.90
32217;DHT22;67098;51.140;4.088;2024-02-28T08:17:37;9.00;99.90
32217;DHT22;67098;51.140;4.088;2024-02-28T08:20:06;9.10;99.90
32217;DHT22;67098;51.140;4.088;2024-02-28T08:22:32;9.10;99.90
32217;DHT22;67098;51.140;4.088;2024-02-28T08:24:57;9.10;99.90
32217;DHT22;67098;51.140;4.088;2024-02-28T08:27:23;9.10;99.90
32217;DHT22;67098;51.140;4.088;2024-02-28T08:29:49;9.20;99.90
32217;DHT22;67098;51.140;4.088;2024-02-28T08:32:16;9.20;99.90
32217;DHT22;67098;51.140;4.088;2024-02-28T08:34:45;9.30;99.90
32217;DHT22;67098;51.140;4.088;2024-02-28T08:37:15;9.30;99.90
32217;DHT22;67098;51.140;4.088;2024-02-28T08:39:41;9.40;99.90
32217;DHT22;67098;51.140;4.088;2024-02-28T08:42:07;9.50;99.90
32217;DHT22;67098;51.140;4.088;2024-02-28T08:44:33;9.60;99.90
32217;DHT22;67098;51.140;4.088;2024-02-28T08:46:58;9.80;99.90
32217;DHT22;67098;51.140;4.088;2024-02-28T08:49:24;9.80;99.90
32217;DHT22;67098;51.140;4.088;2024-02-28T08:51:50;10.00;99.90
32217;DHT22;67098;51.140;4.088;2024-02-28T08:54:15;10.10;99.90
32217;DHT22;67098;51.140;4.088;2024-02-28T08:56:41;10.20;99.90
32217;DHT22;67098;51.140;4.088;2024-02-28T08:59:07;10.40;99.90
32217;DHT22;67098;51.140;4.088;2024-02-28T09:01:33;10.50;99.80
32217;DHT22;67098;51.140;4.088;2024-02-28T09:04:00;10.70;99.60
32217;DHT22;67098;51.140;4.088;2024-02-28T09:06:26;10.80;99.50
32217;DHT22;67098;51.140;4.088;2024-02-28T09:08:52;11.00;99.30
32217;DHT22;67098;51.140;4.088;2024-02-28T09:11:18;11.20;98.90
32217;DHT22;67098;51.140;4.088;2024-02-28T09:13:44;11.30;98.90
32217;DHT22;67098;51.140;4.088;2024-02-28T09:16:09;11.30;98.70
32217;DHT22;67098;51.140;4.088;2024-02-28T09:18:35;11.30;98.70
32217;DHT22;67098;51.140;4.088;2024-02-28T09:21:01;11.30;98.40
32217;DHT22;67098;51.140;4.088;2024-02-28T09:23:27;11.40;98.40
32217;DHT22;67098;51.140;4.088;2024-02-28T09:25:54;11.60;98.30
32217;DHT22;67098;51.140;4.088;2024-02-28T09:28:21;11.80;98.20
32217;DHT22;67098;51.140;4.088;2024-02-28T09:30:47;11.90;98.20
32217;DHT22;67098;51.140;4.088;2024-02-28T09:33:15;12.00;98.00
32217;DHT22;67098;51.140;4.088;2024-02-28T09:35:41;12.10;97.70
32217;DHT22;67098;51.140;4.088;2024-02-28T09:38:08;12.10;97.60
32217;DHT22;67098;51.140;4.088;2024-02-28T09:40:33;12.20;97.70
32217;DHT22;67098;51.140;4.088;2024-02-28T09:43:03;12.30;97.70
32217;DHT22;67098;51.140;4.088;2024-02-28T09:45:31;12.50;97.50
32217;DHT22;67098;51.140;4.088;2024-02-28T09:47:59;12.70;97.50
32217;DHT22;67098;51.140;4.088;2024-02-28T09:50:28;12.80;97.20
32217;DHT22;67098;51.140;4.088;2024-02-28T09:52:54;12.80;97.00
32217;DHT22;67098;51.140;4.088;2024-02-28T09:55:20;12.80;97.10
32217;DHT22;67098;51.140;4.088;2024-02-28T09:57:50;12.90;97.10
32217;DHT22;67098;51.140;4.088;2024-02-28T10:00:19;12.90;97.10
32217;DHT22;67098;51.140;4.088;2024-02-28T10:02:47;13.10;97.10
32217;DHT22;67098;51.140;4.088;2024-02-28T10:05:17;13.10;97.00
32217;DHT22;67098;51.140;4.088;2024-02-28T10:07:47;13.10;97.00
32217;DHT22;67098;51.140;4.088;2024-02-28T10:10:15;13.10;96.90
32217;DHT22;67098;51.140;4.088;2024-02-28T10:12:43;13.00;97.00
32217;DHT22;67098;51.140;4.088;2024-02-28T10:15:10;12.90;97.00
32217;DHT22;67098;51.140;4.088;2024-02-28T10:17:36;13.00;97.20
32217;DHT22;67098;51.140;4.088;2024-02-28T10:20:02;13.00;97.20
32217;DHT22;67098;51.140;4.088;2024-02-28T10:22:39;13.00;97.20
32217;DHT22;67098;51.140;4.088;2024-02-28T10:25:05;13.20;97.10
32217;DHT22;67098;51.140;4.088;2024-02-28T10:27:34;13.30;96.70
32217;DHT22;67098;51.140;4.088;2024-02-28T10:30:01;13.30;96.80
32217;DHT22;67098;51.140;4.088;2024-02-28T10:32:31;13.20;96.80
32217;DHT22;67098;51.140;4.088;2024-02-28T10:34:59;13.20;97.00
32217;DHT22;67098;51.140;4.088;2024-02-28T10:37:25;13.30;97.00
32217;DHT22;67098;51.140;4.088;2024-02-28T10:39:52;13.40;96.90
32217;DHT22;67098;51.140;4.088;2024-02-28T10:42:21;13.30;97.00
32217;DHT22;67098;51.140;4.088;2024-02-28T10:44:50;13.30;96.90
32217;DHT22;67098;51.140;4.088;2024-02-28T10:47:19;13.40;96.90
32217;DHT22;67098;51.140;4.088;2024-02-28T10:49:45;13.30;96.90
32217;DHT22;67098;51.140;4.088;2024-02-28T10:52:12;13.30;96.90
32217;DHT22;67098;51.140;4.088;2024-02-28T10:54:40;13.20;97.00
32217;DHT22;67098;51.140;4.088;2024-02-28T10:57:08;13.30;97.10
32217;DHT22;67098;51.140;4.088;2024-02-28T10:59:37;13.30;97.30
32217;DHT22;67098;51.140;4.088;2024-02-28T11:02:03;13.30;97.20
32217;DHT22;67098;51.140;4.088;2024-02-28T11:04:30;13.30;97.40
32217;DHT22;67098;51.140;4.088;2024-02-28T11:06:56;13.40;97.60
32217;DHT22;67098;51.140;4.088;2024-02-28T11:09:23;13.60;97.50
32217;DHT22;67098;51.140;4.088;2024-02-28T11:11:52;13.60;97.40
32217;DHT22;67098;51.140;4.088;2024-02-28T11:14:19;13.70;97.10
32217;DHT22;67098;51.140;4.088;2024-02-28T11:16:58;13.70;97.00
32217;DHT22;67098;51.140;4.088;2024-02-28T11:19:25;13.70;97.20
32217;DHT22;67098;51.140;4.088;2024-02-28T11:21:57;13.80;97.10
32217;DHT22;67098;51.140;4.088;2024-02-28T11:24:33;14.00;96.90
32217;DHT22;67098;51.140;4.088;2024-02-28T11:27:00;14.20;96.80
32217;DHT22;67098;51.140;4.088;2024-02-28T11:29:28;14.30;96.70
32217;DHT22;67098;51.140;4.088;2024-02-28T11:31:55;14.40;96.40
32217;DHT22;67098;51.140;4.088;2024-02-28T11:34:21;14.40;96.20
32217;DHT22;67098;51.140;4.088;2024-02-28T11:36:48;14.50;96.00
32217;DHT22;67098;51.140;4.088;2024-02-28T11:39:15;14.70;96.00
32217;DHT22;67098;51.140;4.088;2024-02-28T11:41:41;14.70;95.90
32217;DHT22;67098;51.140;4.088;2024-02-28T11:44:07;14.70;95.80
32217;DHT22;67098;51.140;4.088;2024-02-28T11:46:33;14.70;95.80
32217;DHT22;67098;51.140;4.088;2024-02-28T11:49:01;14.70;95.70
32217;DHT22;67098;51.140;4.088;2024-02-28T11:51:27;14.70;95.80
32217;DHT22;67098;51.140;4.088;2024-02-28T11:53:52;14.60;95.90
32217;DHT22;67098;51.140;4.088;2024-02-28T11:56:19;14.50;95.80
32217;DHT22;67098;51.140;4.088;2024-02-28T11:58:53;14.30;96.10
32217;DHT22;67098;51.140;4.088;2024-02-28T12:01:32;14.40;96.30
32217;DHT22;67098;51.140;4.088;2024-02-28T12:03:57;14.30;96.40
32217;DHT22;67098;51.140;4.088;2024-02-28T12:06:23;14.30;96.50
32217;DHT22;67098;51.140;4.088;2024-02-28T12:08:49;14.20;96.60
32217;DHT22;67098;51.140;4.088;2024-02-28T12:11:15;14.20;96.70
32217;DHT22;67098;51.140;4.088;2024-02-28T12:13:41;14.10;96.70
32217;DHT22;67098;51.140;4.088;2024-02-28T12:16:08;14.00;96.90
32217;DHT22;67098;51.140;4.088;2024-02-28T12:18:35;14.00;97.30
32217;DHT22;67098;51.140;4.088;2024-02-28T12:21:02;14.00;97.30
32217;DHT22;67098;51.140;4.088;2024-02-28T12:23:29;13.90;97.60
32217;DHT22;67098;51.140;4.088;2024-02-28T12:25:55;14.00;97.60
32217;DHT22;67098;51.140;4.088;2024-02-28T12:28:21;13.90;97.60
32217;DHT22;67098;51.140;4.088;2024-02-28T12:30:47;13.80;97.70
32217;DHT22;67098;51.140;4.088;2024-02-28T12:33:13;13.70;98.00
32217;DHT22;67098;51.140;4.088;2024-02-28T12:35:39;13.60;98.30
32217;DHT22;67098;51.140;4.088;2024-02-28T12:38:05;13.40;98.70
32217;DHT22;67098;51.140;4.088;2024-02-28T12:40:31;13.40;98.90
32217;DHT22;67098;51.140;4.088;2024-02-28T12:42:57;13.50;99.10
32217;DHT22;67098;51.140;4.088;2024-02-28T12:45:22;13.60;98.90
32217;DHT22;67098;51.140;4.088;2024-02-28T12:47:48;13.60;98.80
32217;DHT22;67098;51.140;4.088;2024-02-28T12:50:14;13.80;98.90
32217;DHT22;67098;51.140;4.088;2024-02-28T12:52:40;13.90;98.60
32217;DHT22;67098;51.140;4.088;2024-02-28T12:55:05;13.90;98.60
32217;DHT22;67098;51.140;4.088;2024-02-28T12:57:31;14.00;98.60
32217;DHT22;67098;51.140;4.088;2024-02-28T12:59:57;13.90;98.20
32217;DHT22;67098;51.140;4.088;2024-02-28T13:02:23;13.80;98.10
32217;DHT22;67098;51.140;4.088;2024-02-28T13:04:48;13.90;97.90
32217;DHT22;67098;51.140;4.088;2024-02-28T13:07:14;14.10;97.70
32217;DHT22;67098;51.140;4.088;2024-02-28T13:09:41;14.20;97.50
32217;DHT22;67098;51.140;4.088;2024-02-28T13:12:07;14.40;97.20
32217;DHT22;67098;51.140;4.088;2024-02-28T13:14:34;14.40;97.20
32217;DHT22;67098;51.140;4.088;2024-02-28T13:17:00;14.40;96.70
32217;DHT22;67098;51.140;4.088;2024-02-28T13:19:25;14.40;96.70
32217;DHT22;67098;51.140;4.088;2024-02-28T13:21:52;14.60;96.40
32217;DHT22;67098;51.140;4.088;2024-02-28T13:24:17;14.50;96.40
32217;DHT22;67098;51.140;4.088;2024-02-28T13:26:43;14.60;96.20
32217;DHT22;67098;51.140;4.088;2024-02-28T13:29:09;14.70;96.10
32217;DHT22;67098;51.140;4.088;2024-02-28T13:31:35;14.60;95.70
32217;DHT22;67098;51.140;4.088;2024-02-28T13:34:01;14.70;95.70
32217;DHT22;67098;51.140;4.088;2024-02-28T13:36:29;14.80;95.90
32217;DHT22;67098;51.140;4.088;2024-02-28T13:38:57;15.00;95.40
32217;DHT22;67098;51.140;4.088;2024-02-28T13:41:23;15.20;94.80
32217;DHT22;67098;51.140;4.088;2024-02-28T13:43:49;15.10;94.60
32217;DHT22;67098;51.140;4.088;2024-02-28T13:46:15;15.00;94.80
32217;DHT22;67098;51.140;4.088;2024-02-28T13:48:41;15.00;95.20
32217;DHT22;67098;51.140;4.088;2024-02-28T13:51:06;14.90;95.20
32217;DHT22;67098;51.140;4.088;2024-02-28T13:53:32;14.90;95.30
32217;DHT22;67098;51.140;4.088;2024-02-28T13:55:58;14.80;94.70
32217;DHT22;67098;51.140;4.088;2024-02-28T13:58:24;14.70;95.20
32217;DHT22;67098;51.140;4.088;2024-02-28T14:00:49;14.90;95.30
32217;DHT22;67098;51.140;4.088;2024-02-28T14:03:15;15.00;95.10
32217;DHT22;67098;51.140;4.088;2024-02-28T14:05:41;15.20;95.10
32217;DHT22;67098;51.140;4.088;2024-02-28T14:08:07;15.40;94.70
32217;DHT22;67098;51.140;4.088;2024-02-28T14:10:34;15.40;94.50
32217;DHT22;67098;51.140;4.088;2024-02-28T14:13:00;15.30;94.40
32217;DHT22;67098;51.140;4.088;2024-02-28T14:15:26;15.30;94.40
32217;DHT22;67098;51.140;4.088;2024-02-28T14:17:52;15.40;94.30
32217;DHT22;67098;51.140;4.088;2024-02-28T14:20:18;15.40;94.40
32217;DHT22;67098;51.140;4.088;2024-02-28T14:22:44;15.50;94.50
32217;DHT22;67098;51.140;4.088;2024-02-28T14:25:14;15.60;94.20
32217;DHT22;67098;51.140;4.088;2024-02-28T14:27:42;15.60;94.00
32217;DHT22;67098;51.140;4.088;2024-02-28T14:30:08;15.70;93.80
32217;DHT22;67098;51.140;4.088;2024-02-28T14:32:35;15.90;93.70
32217;DHT22;67098;51.140;4.088;2024-02-28T14:35:05;16.10;93.40
32217;DHT22;67098;51.140;4.088;2024-02-28T14:37:34;16.00;93.40
32217;DHT22;67098;51.140;4.088;2024-02-28T14:40:00;15.70;93.50
32217;DHT22;67098;51.140;4.088;2024-02-28T14:42:34;15.70;93.60
32217;DHT22;67098;51.140;4.088;2024-02-28T14:45:00;15.50;93.50
32217;DHT22;67098;51.140;4.088;2024-02-28T14:47:25;15.20;94.00
32217;DHT22;67098;51.140;4.088;2024-02-28T14:49:51;15.10;94.10
32217;DHT22;67098;51.140;4.088;2024-02-28T14:52:17;15.10;94.10
32217;DHT22;67098;51.140;4.088;2024-02-28T14:54:42;15.20;94.30
32217;DHT22;67098;51.140;4.088;2024-02-28T14:57:10;15.30;94.30
32217;DHT22;67098;51.140;4.088;2024-02-28T14:59:36;15.40;94.20
32217;DHT22;67098;51.140;4.088;2024-02-28T15:02:01;15.50;94.10
32217;DHT22;67098;51.140;4.088;2024-02-28T15:04:28;15.50;94.10
32217;DHT22;67098;51.140;4.088;2024-02-28T15:06:53;15.50;94.00
32217;DHT22;67098;51.140;4.088;2024-02-28T15:09:19;15.50;94.00
32217;DHT22;67098;51.140;4.088;2024-02-28T15:11:48;15.40;94.10
32217;DHT22;67098;51.140;4.088;2024-02-28T15:14:14;15.30;94.10
32217;DHT22;67098;51.140;4.088;2024-02-28T15:16:40;15.30;94.20
32217;DHT22;67098;51.140;4.088;2024-02-28T15:19:06;15.10;94.30
32217;DHT22;67098;51.140;4.088;2024-02-28T15:21:32;15.00;94.30
32217;DHT22;67098;51.140;4.088;2024-02-28T15:23:57;15.00;94.40
32217;DHT22;67098;51.140;4.088;2024-02-28T15:26:23;14.90;94.40
32217;DHT22;67098;51.140;4.088;2024-02-28T15:28:49;15.00;94.40
32217;DHT22;67098;51.140;4.088;2024-02-28T15:31:15;15.00;94.30
32217;DHT22;67098;51.140;4.088;2024-02-28T15:33:40;14.90;94.40